Paradise Valley, Canada
Current Conditions -  °F | °C
As of 5:00 PM on Wednesday 28 Jan 2015 (Local Time) from CYLL Reporting Station
Few Clouds Few Clouds  
Wind Chill: -4°   Ceiling: Unl
Heat Index: 10°   Visibility: 15mi
Dew Point:   Wind: 12mph
Humidity: 79%   Direction: 310°NW
Pressure: 30.3"   Gusts: NA
Location:  53.03°N, 110.33°W
Report Text: CYLL 290000Z 31010KT 15SM FEW250 M12/M15 A3030 RMK CI1 SLP312
Loading
Personal Weather Stations






























Interactive Weather Map New forecast layout! Learn more

10-Day Weather Forecast

Advertisements
Track Severe Weather on mobile